Time,TemperatureF,DewpointF,PressureIn,WindDirection,WindDirectionDegrees,WindSpeedMPH,WindSpeedGustMPH,Humidity,HourlyPrecipIn,Conditions,Clouds,dailyrainin,SoftwareType,DateUTC
2017-03-23 00:09:00,30.9,27.5,30.13,SW,235,8.0,16.0,87,0.00,,,0.00,WeatherDisplay:10.37,2017-03-23 07:09:00,
2017-03-23 00:14:00,30.7,27.6,30.13,WSW,253,5.0,13.0,88,0.00,,,0.00,WeatherDisplay:10.37,2017-03-23 07:14:00,
2017-03-23 00:19:00,30.5,27.4,30.13,WSW,257,6.0,14.0,88,0.00,,,0.00,WeatherDisplay:10.37,2017-03-23 07:19:00,
2017-03-23 00:24:00,30.6,27.2,30.13,WSW,256,6.0,15.0,87,0.00,,,0.00,WeatherDisplay:10.37,2017-03-23 07:24:00,
2017-03-23 00:29:00,30.5,27.1,30.13,West,263,7.0,16.0,87,0.00,,,0.00,WeatherDisplay:10.37,2017-03-23 07:29:00,
2017-03-23 00:34:00,30.5,26.8,30.13,WSW,250,5.0,14.0,86,0.00,,,0.00,WeatherDisplay:10.37,2017-03-23 07:34:00,
2017-03-23 00:39:00,30.6,26.3,30.13,WSW,249,6.0,20.0,84,0.00,,,0.00,WeatherDisplay:10.37,2017-03-23 07:39:00,
2017-03-23 00:44:00,30.6,26.4,30.13,West,269,7.0,14.0,84,0.00,,,0.00,WeatherDisplay:10.37,2017-03-23 07:44:00,
2017-03-23 00:49:00,30.6,26.6,30.13,West,267,9.0,18.0,85,0.00,,,0.00,WeatherDisplay:10.37,2017-03-23 07:49:00,
2017-03-23 00:54:00,30.7,26.7,30.13,West,263,5.0,13.0,85,0.00,,,0.00,WeatherDisplay:10.37,2017-03-23 07:54:00,
2017-03-23 00:59:00,30.7,26.7,30.13,WSW,256,7.0,13.0,85,0.00,,,0.00,WeatherDisplay:10.37,2017-03-23 07:59:00,
2017-03-23 01:04:00,30.7,27.0,30.14,West,261,7.0,18.0,86,0.00,,,0.00,WeatherDisplay:10.37,2017-03-23 08:04:00,
2017-03-23 01:09:00,30.8,27.1,30.14,West,259,6.0,12.0,86,0.00,,,0.00,WeatherDisplay:10.37,2017-03-23 08:09:00,
2017-03-23 01:14:00,30.8,26.8,30.14,West,265,6.0,12.0,85,0.00,,,0.00,WeatherDisplay:10.37,2017-03-23 08:14:00,
2017-03-23 01:19:00,30.9,26.9,30.14,WSW,257,7.0,15.0,85,0.00,,,0.00,WeatherDisplay:10.37,2017-03-23 08:19:00,
2017-03-23 01:24:00,31.0,26.7,30.15,West,265,5.0,10.0,84,0.00,,,0.00,WeatherDisplay:10.37,2017-03-23 08:24:00,
2017-03-23 01:29:00,31.0,26.4,30.15,WSW,255,7.0,12.0,83,0.00,,,0.00,WeatherDisplay:10.37,2017-03-23 08:29:00,
2017-03-23 01:34:00,31.0,26.7,30.15,West,263,1.0,6.0,84,0.00,,,0.00,WeatherDisplay:10.37,2017-03-23 08:34:00,
2017-03-23 01:39:00,30.8,26.5,30.15,West,267,6.0,13.0,84,0.00,,,0.00,WeatherDisplay:10.37,2017-03-23 08:39:00,
2017-03-23 01:44:00,30.7,26.4,30.15,WSW,251,1.0,8.0,84,0.00,,,0.00,WeatherDisplay:10.37,2017-03-23 08:44:00,
2017-03-23 01:49:00,30.6,26.3,30.15,WSW,249,2.0,5.0,84,0.00,,,0.00,WeatherDisplay:10.37,2017-03-23 08:49:00,
2017-03-23 01:59:00,30.2,26.0,30.15,WSW,239,2.0,6.0,84,0.00,,,0.00,WeatherDisplay:10.37,2017-03-23 08:59:00,
2017-03-23 02:04:00,30.1,26.2,30.14,WSW,249,2.0,10.0,85,0.00,,,0.00,WeatherDisplay:10.37,2017-03-23 09:04:00,
2017-03-23 02:09:00,30.4,26.8,30.14,WSW,253,5.0,12.0,86,0.00,,,0.00,WeatherDisplay:10.37,2017-03-23 09:09:00,
2017-03-23 02:14:00,30.5,26.8,30.14,WSW,250,3.0,9.0,86,0.00,,,0.00,WeatherDisplay:10.37,2017-03-23 09:14:00,
2017-03-23 02:19:00,30.5,26.5,30.14,West,266,3.0,9.0,85,0.00,,,0.00,WeatherDisplay:10.37,2017-03-23 09:19:00,
2017-03-23 02:24:00,30.5,26.2,30.14,West,265,3.0,8.0,84,0.00,,,0.00,WeatherDisplay:10.37,2017-03-23 09:24:00,
2017-03-23 02:29:00,30.3,26.3,30.14,West,268,2.0,5.0,85,0.00,,,0.00,WeatherDisplay:10.37,2017-03-23 09:29:00,
2017-03-23 02:34:00,30.2,26.2,30.14,WSW,252,6.0,12.0,85,0.00,,,0.00,WeatherDisplay:10.37,2017-03-23 09:34:00,
2017-03-23 02:39:00,30.2,26.5,30.14,WSW,245,3.0,9.0,86,0.00,,,0.00,WeatherDisplay:10.37,2017-03-23 09:39:00,
2017-03-23 02:44:00,30.3,26.6,30.14,WSW,252,3.0,10.0,86,0.00,,,0.00,WeatherDisplay:10.37,2017-03-23 09:44:00,
2017-03-23 02:49:00,30.3,26.6,30.14,West,273,2.0,8.0,86,0.00,,,0.00,WeatherDisplay:10.37,2017-03-23 09:49:00,
2017-03-23 02:54:00,30.3,26.3,30.14,West,281,6.0,13.0,85,0.00,,,0.00,WeatherDisplay:10.37,2017-03-23 09:54:00,
2017-03-23 02:59:00,30.3,26.3,30.14,WNW,287,5.0,9.0,85,0.00,,,0.00,WeatherDisplay:10.37,2017-03-23 09:59:00,
2017-03-23 03:04:00,30.2,26.2,30.14,WNW,285,5.0,12.0,85,0.00,,,0.00,WeatherDisplay:10.37,2017-03-23 10:04:00,
2017-03-23 03:09:00,30.1,26.1,30.14,West,275,5.0,9.0,85,0.00,,,0.00,WeatherDisplay:10.37,2017-03-23 10:09:00,
2017-03-23 03:14:00,30.1,26.1,30.15,West,264,3.0,9.0,85,0.00,,,0.00,WeatherDisplay:10.37,2017-03-23 10:14:00,
2017-03-23 03:24:00,30.2,26.5,30.14,West,265,5.0,12.0,86,0.00,,,0.00,WeatherDisplay:10.37,2017-03-23 10:24:00,
2017-03-23 03:34:00,30.2,26.5,30.15,WNW,289,6.0,10.0,86,0.00,,,0.00,WeatherDisplay:10.37,2017-03-23 10:34:00,
2017-03-23 03:39:00,30.1,26.4,30.15,West,280,3.0,9.0,86,0.00,,,0.00,WeatherDisplay:10.37,2017-03-23 10:39:00,
2017-03-23 03:44:00,30.0,26.4,30.15,West,281,6.0,15.0,86,0.00,,,0.00,WeatherDisplay:10.37,2017-03-23 10:44:00,
2017-03-23 03:49:00,30.0,26.6,30.15,WNW,290,2.0,10.0,87,0.00,,,0.00,WeatherDisplay:10.37,2017-03-23 10:49:00,
2017-03-23 03:59:00,29.8,26.4,30.15,WNW,290,6.0,13.0,87,0.00,,,0.00,WeatherDisplay:10.37,2017-03-23 10:59:00,
2017-03-23 04:04:00,29.6,26.5,30.14,WNW,300,5.0,12.0,88,0.00,,,0.00,WeatherDisplay:10.37,2017-03-23 11:04:00,
2017-03-23 04:09:00,29.5,26.4,30.14,West,277,3.0,10.0,88,0.00,,,0.00,WeatherDisplay:10.37,2017-03-23 11:09:00,
2017-03-23 04:14:00,29.4,26.3,30.14,West,276,5.0,10.0,88,0.00,,,0.00,WeatherDisplay:10.37,2017-03-23 11:14:00,
2017-03-23 04:19:00,29.3,25.9,30.14,WNW,301,3.0,6.0,87,0.00,,,0.00,WeatherDisplay:10.37,2017-03-23 11:19:00,
2017-03-23 04:24:00,29.1,25.7,30.15,WNW,285,5.0,8.0,87,0.00,,,0.00,WeatherDisplay:10.37,2017-03-23 11:24:00,
2017-03-23 04:29:00,29.1,25.7,30.16,WNW,298,3.0,8.0,87,0.00,,,0.00,WeatherDisplay:10.37,2017-03-23 11:29:00,
2017-03-23 04:34:00,29.0,25.6,30.16,WNW,296,5.0,12.0,87,0.00,,,0.00,WeatherDisplay:10.37,2017-03-23 11:34:00,
2017-03-23 04:39:00,29.0,25.9,30.16,WNW,287,2.0,7.0,88,0.00,,,0.00,WeatherDisplay:10.37,2017-03-23 11:39:00,
2017-03-23 04:44:00,29.1,25.7,30.16,WNW,297,7.0,13.0,87,0.00,,,0.00,WeatherDisplay:10.37,2017-03-23 11:44:00,
2017-03-23 04:49:00,28.8,25.7,30.16,WNW,298,2.0,7.0,88,0.00,,,0.00,WeatherDisplay:10.37,2017-03-23 11:49:00,
2017-03-23 04:54:00,28.4,25.3,30.16,WNW,294,1.0,10.0,88,0.00,,,0.00,WeatherDisplay:10.37,2017-03-23 11:54:00,
2017-03-23 04:59:00,28.1,25.0,30.16,West,269,2.0,8.0,88,0.00,,,0.00,WeatherDisplay:10.37,2017-03-23 11:59:00,
2017-03-23 05:04:00,27.9,24.8,30.16,West,277,1.0,8.0,88,0.00,,,0.00,WeatherDisplay:10.37,2017-03-23 12:04:00,
2017-03-23 05:09:00,27.8,24.7,30.17,WNW,290,2.0,5.0,88,0.00,,,0.00,WeatherDisplay:10.37,2017-03-23 12:09:00,
2017-03-23 05:14:00,27.7,24.6,30.17,NW,307,3.0,7.0,88,0.00,,,0.00,WeatherDisplay:10.37,2017-03-23 12:14:00,
2017-03-23 05:19:00,27.5,24.4,30.17,WNW,302,2.0,8.0,88,0.00,CLR,,0.00,WeatherDisplay:10.37,2017-03-23 12:19:00,
2017-03-23 05:24:00,27.4,24.3,30.17,West,272,1.0,6.0,88,0.00,CLR,,0.00,WeatherDisplay:10.37,2017-03-23 12:24:00,
2017-03-23 05:34:00,27.3,24.2,30.18,WNW,301,5.0,10.0,88,0.00,CLR,,0.00,WeatherDisplay:10.37,2017-03-23 12:34:00,
2017-03-23 05:39:00,27.1,24.0,30.18,WNW,292,3.0,7.0,88,0.00,CLR,,0.00,WeatherDisplay:10.37,2017-03-23 12:39:00,
2017-03-23 05:44:00,27.1,24.3,30.18,WNW,286,3.0,8.0,89,0.00,CLR,,0.00,WeatherDisplay:10.37,2017-03-23 12:44:00,
2017-03-23 05:49:00,27.1,24.3,30.18,West,279,2.0,8.0,89,0.00,CLR,,0.00,WeatherDisplay:10.37,2017-03-23 12:49:00,
2017-03-23 05:54:00,27.1,24.3,30.19,West,273,2.0,6.0,89,0.00,CLR,,0.00,WeatherDisplay:10.37,2017-03-23 12:54:00,
2017-03-23 05:59:00,27.1,24.3,30.19,West,280,1.0,7.0,89,0.00,CLR,,0.00,WeatherDisplay:10.37,2017-03-23 12:59:00,
2017-03-23 06:04:00,27.2,24.4,30.19,WNW,291,3.0,7.0,89,0.00,CLR,,0.00,WeatherDisplay:10.37,2017-03-23 13:04:00,
2017-03-23 06:09:00,27.2,24.4,30.19,WNW,287,2.0,7.0,89,0.00,CLR,,0.00,WeatherDisplay:10.37,2017-03-23 13:09:00,
2017-03-23 06:14:00,27.2,24.4,30.19,WNW,302,2.0,8.0,89,0.00,CLR,,0.00,WeatherDisplay:10.37,2017-03-23 13:14:00,
2017-03-23 06:19:00,27.3,24.5,30.20,NW,310,1.0,4.0,89,0.00,CLR,,0.00,WeatherDisplay:10.37,2017-03-23 13:19:00,
2017-03-23 06:24:00,27.2,24.4,30.20,NW,305,3.0,5.0,89,0.00,CLR,,0.00,WeatherDisplay:10.37,2017-03-23 13:24:00,
2017-03-23 06:29:00,27.2,24.4,30.20,NW,326,1.0,5.0,89,0.00,CLR,,0.00,WeatherDisplay:10.37,2017-03-23 13:29:00,
2017-03-23 06:34:00,27.1,24.3,30.21,NW,324,2.0,6.0,89,0.00,CLR,,0.00,WeatherDisplay:10.37,2017-03-23 13:34:00,
2017-03-23 06:39:00,27.1,24.3,30.21,NW,308,5.0,9.0,89,0.00,CLR,,0.00,WeatherDisplay:10.37,2017-03-23 13:39:00,
2017-03-23 06:44:00,27.1,24.0,30.21,WNW,293,3.0,7.0,88,0.00,CLR,,0.00,WeatherDisplay:10.37,2017-03-23 13:44:00,
2017-03-23 06:49:00,27.1,24.0,30.21,WNW,301,2.0,7.0,88,0.00,CLR,,0.00,WeatherDisplay:10.37,2017-03-23 13:49:00,
2017-03-23 06:54:00,27.0,23.9,30.20,WNW,285,3.0,8.0,88,0.00,CLR,,0.00,WeatherDisplay:10.37,2017-03-23 13:54:00,
2017-03-23 06:59:00,26.9,23.8,30.20,NW,304,6.0,13.0,88,0.00,CLR,,0.00,WeatherDisplay:10.37,2017-03-23 13:59:00,
2017-03-23 07:04:00,27.0,23.6,30.20,NW,316,5.0,10.0,87,0.00,CLR,,0.00,WeatherDisplay:10.37,2017-03-23 14:04:00,
2017-03-23 07:09:00,27.0,23.9,30.21,NW,315,6.0,13.0,88,0.00,CLR,,0.00,WeatherDisplay:10.37,2017-03-23 14:09:00,
2017-03-23 07:14:00,27.0,23.9,30.21,WNW,301,3.0,10.0,88,0.00,CLR,,0.00,WeatherDisplay:10.37,2017-03-23 14:14:00,
2017-03-23 07:19:00,27.0,23.9,30.21,West,281,2.0,10.0,88,0.00,CLR,,0.00,WeatherDisplay:10.37,2017-03-23 14:19:00,
2017-03-23 07:24:00,27.1,24.0,30.22,NW,306,2.0,7.0,88,0.00,CLR,,0.00,WeatherDisplay:10.37,2017-03-23 14:24:00,
2017-03-23 07:29:00,27.1,24.0,30.23,NW,320,2.0,8.0,88,0.00,CLR,,0.00,WeatherDisplay:10.37,2017-03-23 14:29:00,
2017-03-23 07:34:00,27.4,24.0,30.23,NNW,328,1.0,6.0,87,0.00,CLR,,0.00,WeatherDisplay:10.37,2017-03-23 14:34:00,
2017-03-23 07:39:00,27.6,24.2,30.23,NW,305,6.0,9.0,87,0.00,CLR,,0.00,WeatherDisplay:10.37,2017-03-23 14:39:00,
2017-03-23 07:44:00,27.4,24.1,30.23,WNW,295,7.0,10.0,87,0.00,CLR,,0.00,WeatherDisplay:10.37,2017-03-23 14:44:00,
2017-03-23 07:49:00,27.3,23.9,30.24,WNW,299,2.0,12.0,87,0.00,CLR,,0.00,WeatherDisplay:10.37,2017-03-23 14:49:00,
2017-03-23 07:54:00,27.3,23.9,30.24,WNW,297,5.0,12.0,87,0.00,CLR,,0.00,WeatherDisplay:10.37,2017-03-23 14:54:00,
2017-03-23 07:59:00,27.6,24.2,30.24,WNW,301,5.0,9.0,87,0.00,CLR,,0.00,WeatherDisplay:10.37,2017-03-23 14:59:00,
2017-03-23 08:04:00,27.6,24.2,30.24,WNW,295,3.0,8.0,87,0.00,CLR,,0.00,WeatherDisplay:10.37,2017-03-23 15:04:00,
2017-03-23 08:09:00,27.8,24.4,30.24,WNW,300,3.0,7.0,87,0.00,CLR,,0.00,WeatherDisplay:10.37,2017-03-23 15:09:00,
2017-03-23 08:14:00,28.0,24.3,30.24,WNW,297,3.0,12.0,86,0.00,CLR,,0.00,WeatherDisplay:10.37,2017-03-23 15:14:00,
2017-03-23 08:19:00,28.4,24.8,30.25,WNW,287,3.0,13.0,86,0.00,CLR,,0.00,WeatherDisplay:10.37,2017-03-23 15:19:00,
2017-03-23 08:24:00,28.6,24.7,30.25,WNW,298,5.0,10.0,85,0.00,CLR,,0.00,WeatherDisplay:10.37,2017-03-23 15:24:00,
2017-03-23 08:29:00,28.6,24.4,30.25,WNW,298,5.0,9.0,84,0.00,CLR,,0.00,WeatherDisplay:10.37,2017-03-23 15:29:00,
2017-03-23 08:34:00,28.6,24.3,30.26,WNW,290,2.0,9.0,84,0.00,CLR,,0.00,WeatherDisplay:10.37,2017-03-23 15:34:00,
2017-03-23 08:39:00,28.9,24.9,30.26,WNW,297,3.0,9.0,85,0.00,CLR,,0.00,WeatherDisplay:10.37,2017-03-23 15:39:00,
2017-03-23 08:44:00,29.2,25.0,30.27,WNW,292,7.0,10.0,84,0.00,CLR,,0.00,WeatherDisplay:10.37,2017-03-23 15:44:00,
2017-03-23 08:49:00,29.0,25.1,30.27,WNW,291,3.0,9.0,85,0.00,CLR,,0.00,WeatherDisplay:10.37,2017-03-23 15:49:00,
2017-03-23 08:54:00,29.1,24.9,30.27,WNW,294,6.0,9.0,84,0.00,CLR,,0.00,WeatherDisplay:10.37,2017-03-23 15:54:00,
2017-03-23 08:59:00,29.3,25.0,30.27,WNW,296,3.0,8.0,84,0.00,CLR,,0.00,WeatherDisplay:10.37,2017-03-23 15:59:00,
2017-03-23 09:04:00,29.4,24.8,30.27,WNW,301,5.0,8.0,83,0.00,CLR,,0.00,WeatherDisplay:10.37,2017-03-23 16:04:00,
2017-03-23 09:09:00,29.4,24.9,30.28,WNW,303,3.0,8.0,83,0.00,CLR,,0.00,WeatherDisplay:10.37,2017-03-23 16:09:00,
2017-03-23 09:19:00,30.0,24.9,30.28,WNW,292,3.0,8.0,81,0.00,CLR,,0.00,WeatherDisplay:10.37,2017-03-23 16:19:00,
2017-03-23 09:24:00,30.5,25.4,30.28,WNW,291,3.0,8.0,81,0.00,CLR,,0.00,WeatherDisplay:10.37,2017-03-23 16:24:00,
2017-03-23 09:29:00,30.5,25.4,30.29,WNW,290,5.0,9.0,81,0.00,CLR,,0.00,WeatherDisplay:10.37,2017-03-23 16:29:00,
2017-03-23 09:34:00,30.6,25.1,30.29,WNW,290,5.0,9.0,80,0.00,CLR,,0.00,WeatherDisplay:10.37,2017-03-23 16:34:00,
2017-03-23 09:39:00,30.8,25.6,30.29,WNW,283,6.0,12.0,81,0.00,CLR,,0.00,WeatherDisplay:10.37,2017-03-23 16:39:00,
2017-03-23 09:44:00,30.7,25.6,30.29,WNW,286,2.0,12.0,81,0.00,CLR,,0.00,WeatherDisplay:10.37,2017-03-23 16:44:00,
2017-03-23 09:49:00,31.0,25.8,30.29,WNW,288,5.0,10.0,81,0.00,CLR,,0.00,WeatherDisplay:10.37,2017-03-23 16:49:00,
2017-03-23 09:54:00,31.4,25.9,30.30,WNW,288,6.0,9.0,80,0.00,CLR,,0.00,WeatherDisplay:10.37,2017-03-23 16:54:00,
2017-03-23 09:59:00,31.4,25.9,30.30,WNW,292,6.0,9.0,80,0.00,CLR,,0.00,WeatherDisplay:10.37,2017-03-23 16:59:00,
2017-03-23 10:04:00,31.8,26.0,30.30,WNW,288,3.0,7.0,79,0.00,CLR,,0.00,WeatherDisplay:10.37,2017-03-23 17:04:00,
2017-03-23 10:09:00,32.4,26.6,30.31,WNW,292,2.0,7.0,79,0.00,CLR,,0.00,WeatherDisplay:10.37,2017-03-23 17:09:00,
2017-03-23 10:14:00,32.7,26.3,30.31,WNW,293,3.0,12.0,77,0.00,CLR,,0.00,WeatherDisplay:10.37,2017-03-23 17:14:00,
2017-03-23 10:19:00,33.0,26.6,30.31,WNW,287,3.0,8.0,77,0.00,CLR,,0.00,WeatherDisplay:10.37,2017-03-23 17:19:00,
2017-03-23 10:24:00,33.1,26.7,30.32,WNW,288,5.0,9.0,77,0.00,CLR,,0.00,WeatherDisplay:10.37,2017-03-23 17:24:00,
2017-03-23 10:29:00,33.3,26.8,30.32,WNW,296,3.0,9.0,77,0.00,CLR,,0.00,WeatherDisplay:10.37,2017-03-23 17:29:00,
2017-03-23 10:34:00,33.9,27.7,30.33,WNW,303,2.0,5.0,78,0.00,CLR,,0.00,WeatherDisplay:10.37,2017-03-23 17:34:00,
2017-03-23 10:39:00,34.3,27.2,30.33,WNW,295,2.0,6.0,75,0.00,CLR,,0.00,WeatherDisplay:10.37,2017-03-23 17:39:00,
2017-03-23 10:49:00,34.4,27.3,30.33,WNW,288,2.0,12.0,75,0.00,CLR,,0.00,WeatherDisplay:10.37,2017-03-23 17:49:00,
2017-03-23 10:54:00,35.1,27.3,30.33,West,278,2.0,7.0,73,0.00,CLR,,0.00,WeatherDisplay:10.37,2017-03-23 17:54:00,
2017-03-23 10:59:00,35.7,27.6,30.33,WNW,298,2.0,6.0,72,0.00,CLR,,0.00,WeatherDisplay:10.37,2017-03-23 17:59:00,
2017-03-23 11:04:00,36.1,27.6,30.34,WNW,294,3.0,10.0,71,0.00,CLR,,0.00,WeatherDisplay:10.37,2017-03-23 18:04:00,
2017-03-23 11:09:00,36.2,27.4,30.34,WNW,291,3.0,8.0,70,0.01,RA,,0.01,WeatherDisplay:10.37,2017-03-23 18:09:00,
2017-03-23 11:14:00,36.2,27.4,30.34,WNW,288,3.0,9.0,70,0.02,RA,,0.03,WeatherDisplay:10.37,2017-03-23 18:14:00,
2017-03-23 11:19:00,36.2,26.7,30.35,WNW,290,7.0,13.0,68,0.01,RA,,0.04,WeatherDisplay:10.37,2017-03-23 18:19:00,
2017-03-23 11:24:00,35.9,26.7,30.35,WNW,290,5.0,12.0,69,0.01,RA,,0.06,WeatherDisplay:10.37,2017-03-23 18:24:00,
2017-03-23 11:29:00,36.2,27.4,30.36,WNW,285,2.0,12.0,70,0.02,RA,,0.07,WeatherDisplay:10.37,2017-03-23 18:29:00,
2017-03-23 11:34:00,36.4,26.9,30.36,WNW,284,3.0,10.0,68,0.02,RA,,0.09,WeatherDisplay:10.37,2017-03-23 18:34:00,
2017-03-23 11:39:00,36.5,27.6,30.36,West,279,3.0,8.0,70,0.01,RA,,0.10,WeatherDisplay:10.37,2017-03-23 18:39:00,
2017-03-23 11:44:00,36.6,27.8,30.36,WSW,237,7.0,12.0,70,0.01,RA,,0.11,WeatherDisplay:10.37,2017-03-23 18:44:00,
2017-03-23 11:49:00,36.6,28.0,30.36,West,259,3.0,8.0,71,0.02,RA,,0.13,WeatherDisplay:10.37,2017-03-23 18:49:00,
2017-03-23 11:54:00,37.2,28.3,30.36,West,274,2.0,11.0,70,0.01,RA,,0.14,WeatherDisplay:10.37,2017-03-23 18:54:00,
2017-03-23 11:59:00,37.3,27.0,30.36,WNW,302,5.0,12.0,66,0.01,RA,,0.16,WeatherDisplay:10.37,2017-03-23 18:59:00,
2017-03-23 12:04:00,37.0,27.1,30.36,West,270,5.0,8.0,67,0.02,RA,,0.17,WeatherDisplay:10.37,2017-03-23 19:04:00,
2017-03-23 12:14:00,37.7,26.6,30.37,WSW,253,5.0,12.0,64,0.01,RA,,0.19,WeatherDisplay:10.37,2017-03-23 19:14:00,
2017-03-23 12:19:00,38.1,26.2,30.37,West,262,3.0,10.0,62,0.01,RA,,0.21,WeatherDisplay:10.37,2017-03-23 19:19:00,
2017-03-23 12:24:00,38.8,26.1,30.37,WSW,253,6.0,10.0,60,0.01,RA,,0.21,WeatherDisplay:10.37,2017-03-23 19:24:00,
2017-03-23 12:29:00,38.3,26.0,30.38,WSW,255,7.0,12.0,61,0.02,RA,,0.23,WeatherDisplay:10.37,2017-03-23 19:29:00,
2017-03-23 12:34:00,38.2,26.7,30.37,WSW,257,5.0,8.0,63,0.01,RA,,0.24,WeatherDisplay:10.37,2017-03-23 19:34:00,
2017-03-23 12:39:00,38.4,27.3,30.38,WSW,250,2.0,9.0,64,0.01,RA,,0.25,WeatherDisplay:10.37,2017-03-23 19:39:00,
2017-03-23 12:44:00,38.9,27.4,30.38,WSW,254,2.0,7.0,63,0.00,RA,,0.25,WeatherDisplay:10.37,2017-03-23 19:44:00,
2017-03-23 12:49:00,39.1,26.4,30.37,West,262,6.0,12.0,60,0.02,RA,,0.27,WeatherDisplay:10.37,2017-03-23 19:49:00,
2017-03-23 12:54:00,39.0,25.9,30.38,West,261,2.0,10.0,59,0.00,RA,,0.27,WeatherDisplay:10.37,2017-03-23 19:54:00,
2017-03-23 12:59:00,39.4,25.8,30.38,SW,233,6.0,9.0,58,0.01,RA,,0.28,WeatherDisplay:10.37,2017-03-23 19:59:00,
2017-03-23 13:04:00,39.1,26.4,30.38,West,263,3.0,12.0,60,0.01,RA,,0.29,WeatherDisplay:10.37,2017-03-23 20:04:00,
2017-03-23 13:09:00,39.5,25.5,30.38,West,276,7.0,13.0,57,0.00,RA,,0.29,WeatherDisplay:10.37,2017-03-23 20:09:00,
2017-03-23 13:14:00,39.3,25.8,30.38,WSW,238,6.0,13.0,58,0.01,RA,,0.30,WeatherDisplay:10.37,2017-03-23 20:14:00,
2017-03-23 13:19:00,39.9,25.9,30.38,WSW,255,2.0,10.0,57,0.01,RA,,0.31,WeatherDisplay:10.37,2017-03-23 20:19:00,
2017-03-23 13:24:00,40.3,26.7,30.39,WSW,252,5.0,10.0,58,0.00,RA,,0.31,WeatherDisplay:10.37,2017-03-23 20:24:00,
2017-03-23 13:29:00,40.1,26.5,30.39,WSW,255,5.0,10.0,58,0.00,CLR,,0.31,WeatherDisplay:10.37,2017-03-23 20:29:00,
2017-03-23 13:34:00,40.2,27.0,30.38,WNW,297,2.0,7.0,59,0.01,RA,,0.32,WeatherDisplay:10.37,2017-03-23 20:34:00,
2017-03-23 13:39:00,40.7,27.1,30.38,NW,308,2.0,7.0,58,0.00,RA,,0.32,WeatherDisplay:10.37,2017-03-23 20:39:00,
2017-03-23 13:44:00,41.1,27.0,30.38,WNW,286,3.0,8.0,57,0.00,CLR,,0.32,WeatherDisplay:10.37,2017-03-23 20:44:00,
2017-03-23 13:49:00,41.4,26.4,30.38,West,268,5.0,12.0,55,0.01,RA,,0.33,WeatherDisplay:10.37,2017-03-23 20:49:00,
2017-03-23 13:54:00,41.4,26.4,30.38,WNW,293,3.0,10.0,55,0.00,RA,,0.33,WeatherDisplay:10.37,2017-03-23 20:54:00,
2017-03-23 13:59:00,41.6,25.3,30.38,West,276,6.0,12.0,52,0.00,CLR,,0.33,WeatherDisplay:10.37,2017-03-23 20:59:00,
2017-03-23 14:04:00,41.6,23.8,30.38,West,273,6.0,12.0,49,0.00,CLR,,0.33,WeatherDisplay:10.37,2017-03-23 21:04:00,
2017-03-23 14:09:00,41.7,24.9,30.38,West,271,3.0,12.0,51,0.00,CLR,,0.33,WeatherDisplay:10.37,2017-03-23 21:09:00,
2017-03-23 14:14:00,42.1,23.8,30.39,WSW,254,6.0,13.0,48,0.00,CLR,,0.33,WeatherDisplay:10.37,2017-03-23 21:14:00,
2017-03-23 14:19:00,41.9,23.1,30.39,West,275,6.0,13.0,47,0.00,CLR,,0.33,WeatherDisplay:10.37,2017-03-23 21:19:00,
2017-03-23 14:25:00,42.4,23.0,30.39,West,281,2.0,8.0,46,0.00,CLR,,0.33,WeatherDisplay:10.37,2017-03-23 21:25:00,
2017-03-23 14:34:00,43.1,23.7,30.39,West,272,5.0,12.0,46,0.00,CLR,,0.33,WeatherDisplay:10.37,2017-03-23 21:34:00,
2017-03-23 14:39:00,42.5,23.2,30.38,WSW,243,3.0,10.0,46,0.00,CLR,,0.33,WeatherDisplay:10.37,2017-03-23 21:39:00,
2017-03-23 14:44:00,42.9,24.0,30.38,SW,232,2.0,9.0,47,0.00,CLR,,0.33,WeatherDisplay:10.37,2017-03-23 21:44:00,
2017-03-23 14:49:00,43.2,22.7,30.38,West,272,7.0,9.0,44,0.00,CLR,,0.33,WeatherDisplay:10.37,2017-03-23 21:49:00,
2017-03-23 14:54:00,43.0,22.5,30.39,WNW,288,5.0,10.0,44,0.00,CLR,,0.33,WeatherDisplay:10.37,2017-03-23 21:54:00,
2017-03-23 14:59:00,43.5,25.1,30.39,West,264,2.0,6.0,48,0.00,CLR,,0.33,WeatherDisplay:10.37,2017-03-23 21:59:00,
2017-03-23 15:04:00,44.2,24.7,30.38,WSW,253,7.0,15.0,46,0.00,CLR,,0.33,WeatherDisplay:10.37,2017-03-23 22:04:00,
2017-03-23 15:09:00,44.1,24.1,30.39,West,280,3.0,8.0,45,0.00,CLR,,0.33,WeatherDisplay:10.37,2017-03-23 22:09:00,
2017-03-23 15:14:00,44.0,22.9,30.39,West,266,5.0,8.0,43,0.00,CLR,,0.33,WeatherDisplay:10.37,2017-03-23 22:14:00,
2017-03-23 15:19:00,43.8,22.1,30.39,WNW,285,2.0,10.0,42,0.00,CLR,,0.33,WeatherDisplay:10.37,2017-03-23 22:19:00,
2017-03-23 15:24:00,44.0,24.0,30.39,WNW,288,5.0,12.0,45,0.00,CLR,,0.33,WeatherDisplay:10.37,2017-03-23 22:24:00,
2017-03-23 15:29:00,45.0,24.9,30.39,West,280,5.0,9.0,45,0.00,CLR,,0.33,WeatherDisplay:10.37,2017-03-23 22:29:00,
2017-03-23 15:34:00,45.4,24.2,30.39,WNW,288,3.0,10.0,43,0.00,CLR,,0.33,WeatherDisplay:10.37,2017-03-23 22:34:00,
2017-03-23 15:39:00,44.8,21.3,30.39,West,264,5.0,10.0,39,0.00,CLR,,0.33,WeatherDisplay:10.37,2017-03-23 22:39:00,
2017-03-23 15:49:00,44.7,21.2,30.38,West,267,5.0,8.0,39,0.00,CLR,,0.33,WeatherDisplay:10.37,2017-03-23 22:49:00,
2017-03-23 15:54:00,44.7,20.0,30.38,WNW,290,6.0,9.0,37,0.00,CLR,,0.33,WeatherDisplay:10.37,2017-03-23 22:54:00,
2017-03-23 15:59:00,45.2,22.3,30.38,WNW,292,2.0,5.0,40,0.00,CLR,,0.33,WeatherDisplay:10.37,2017-03-23 22:59:00,
2017-03-23 16:04:00,45.8,21.6,30.38,WNW,291,3.0,8.0,38,0.00,CLR,,0.33,WeatherDisplay:10.37,2017-03-23 23:04:00,
2017-03-23 16:09:00,46.0,22.4,30.38,West,274,3.0,8.0,39,0.00,CLR,,0.33,WeatherDisplay:10.37,2017-03-23 23:09:00,
2017-03-23 16:14:00,45.2,22.9,30.38,West,277,3.0,13.0,41,0.00,CLR,,0.33,WeatherDisplay:10.37,2017-03-23 23:14:00,
2017-03-23 16:19:00,45.5,25.4,30.39,WNW,287,5.0,8.0,45,0.00,CLR,,0.33,WeatherDisplay:10.37,2017-03-23 23:19:00,
2017-03-23 16:24:00,45.7,25.5,30.38,WNW,294,5.0,9.0,45,0.00,CLR,,0.33,WeatherDisplay:10.37,2017-03-23 23:24:00,
2017-03-23 16:29:00,45.9,25.7,30.38,WSW,254,3.0,9.0,45,0.00,CLR,,0.33,WeatherDisplay:10.37,2017-03-23 23:29:00,
2017-03-23 16:34:00,45.8,25.7,30.38,West,272,3.0,9.0,45,0.00,CLR,,0.33,WeatherDisplay:10.37,2017-03-23 23:34:00,
2017-03-23 16:39:00,45.5,27.0,30.38,WSW,253,2.0,6.0,48,0.00,CLR,,0.33,WeatherDisplay:10.37,2017-03-23 23:39:00,
2017-03-23 16:44:00,45.6,27.5,30.39,SW,231,3.0,9.0,49,0.00,CLR,,0.33,WeatherDisplay:10.37,2017-03-23 23:44:00,
2017-03-23 16:49:00,45.3,29.2,30.39,WSW,245,3.0,10.0,53,0.00,CLR,,0.33,WeatherDisplay:10.37,2017-03-23 23:49:00,
2017-03-23 16:54:00,44.2,27.7,30.38,WSW,237,6.0,12.0,52,0.00,CLR,,0.33,WeatherDisplay:10.37,2017-03-23 23:54:00,
2017-03-23 16:59:00,44.3,28.2,30.39,WSW,238,6.0,10.0,53,0.00,CLR,,0.33,WeatherDisplay:10.37,2017-03-23 23:59:00,
2017-03-23 17:04:00,44.2,29.0,30.39,West,262,6.0,12.0,55,0.00,CLR,,0.33,WeatherDisplay:10.37,2017-03-24 00:04:00,
2017-03-23 17:09:00,44.3,30.0,30.39,West,266,2.0,7.0,57,0.00,CLR,,0.33,WeatherDisplay:10.37,2017-03-24 00:09:00,
2017-03-23 17:14:00,44.7,31.6,30.39,WSW,248,2.0,8.0,60,0.00,CLR,,0.33,WeatherDisplay:10.37,2017-03-24 00:14:00,
2017-03-23 17:19:00,44.2,32.4,30.39,SW,227,2.0,9.0,63,0.00,CLR,,0.33,WeatherDisplay:10.37,2017-03-24 00:19:00,
2017-03-23 17:24:00,44.6,30.7,30.39,SSW,201,2.0,7.0,58,0.00,CLR,,0.33,WeatherDisplay:10.37,2017-03-24 00:24:00,
2017-03-23 17:29:00,44.7,29.9,30.39,SW,221,1.0,7.0,56,0.00,CLR,,0.33,WeatherDisplay:10.37,2017-03-24 00:29:00,
2017-03-23 17:34:00,44.5,30.6,30.39,SW,223,3.0,8.0,58,0.00,CLR,,0.33,WeatherDisplay:10.37,2017-03-24 00:34:00,
2017-03-23 17:39:00,43.6,31.0,30.40,SSW,207,2.0,9.0,61,0.00,CLR,,0.33,WeatherDisplay:10.37,2017-03-24 00:39:00,
2017-03-23 17:44:00,43.6,33.4,30.40,WSW,240,3.0,6.0,67,0.00,CLR,,0.33,WeatherDisplay:10.37,2017-03-24 00:44:00,
2017-03-23 17:49:00,42.6,32.8,30.40,West,262,5.0,12.0,68,0.00,CLR,,0.33,WeatherDisplay:10.37,2017-03-24 00:49:00,
2017-03-23 17:54:00,41.8,32.7,30.40,WSW,242,6.0,12.0,70,0.00,CLR,,0.33,WeatherDisplay:10.37,2017-03-24 00:54:00,
2017-03-23 17:59:00,40.8,32.5,30.40,SW,236,3.0,10.0,72,0.00,CLR,,0.33,WeatherDisplay:10.37,2017-03-24 00:59:00,
2017-03-23 18:04:00,40.6,33.0,30.40,WSW,241,5.0,12.0,74,0.00,CLR,,0.33,WeatherDisplay:10.37,2017-03-24 01:04:00,
2017-03-23 18:09:00,40.4,32.8,30.40,SW,236,1.0,6.0,74,0.00,CLR,,0.33,WeatherDisplay:10.37,2017-03-24 01:09:00,
2017-03-23 18:14:00,40.2,32.6,30.40,SW,227,2.0,7.0,74,0.00,CLR,,0.33,WeatherDisplay:10.37,2017-03-24 01:14:00,
2017-03-23 18:19:00,40.2,32.9,30.40,SW,235,1.0,3.0,75,0.00,CLR,,0.33,WeatherDisplay:10.37,2017-03-24 01:19:00,
2017-03-23 18:24:00,39.9,33.0,30.40,SW,232,2.0,4.0,76,0.00,CLR,,0.33,WeatherDisplay:10.37,2017-03-24 01:24:00,
2017-03-23 18:29:00,39.7,33.1,30.40,SW,226,2.0,6.0,77,0.00,CLR,,0.33,WeatherDisplay:10.37,2017-03-24 01:29:00,
2017-03-23 18:34:00,39.2,32.9,30.40,SSW,210,1.0,5.0,78,0.00,,,0.33,WeatherDisplay:10.37,2017-03-24 01:34:00,
2017-03-23 18:39:00,38.5,32.6,30.40,SW,216,2.0,8.0,79,0.00,,,0.33,WeatherDisplay:10.37,2017-03-24 01:39:00,
2017-03-23 18:44:00,37.9,32.3,30.40,SW,222,0.0,4.0,80,0.00,,,0.33,WeatherDisplay:10.37,2017-03-24 01:44:00,
2017-03-23 18:49:00,37.4,32.1,30.41,SSW,212,1.0,3.0,81,0.00,,,0.33,WeatherDisplay:10.37,2017-03-24 01:49:00,
2017-03-23 18:54:00,36.9,32.0,30.41,WSW,242,0.0,6.0,82,0.00,,,0.33,WeatherDisplay:10.37,2017-03-24 01:54:00,
2017-03-23 18:59:00,36.7,31.7,30.41,West,261,0.0,3.0,82,0.00,,,0.33,WeatherDisplay:10.37,2017-03-24 01:59:00,